Nearby METAR Reports

 

LGTS - Thessaloniki/Mik, Greece
Distance from station: ΔΝΔ 66km
Ενημερώθηκε: 22/07/2017 17:20
Αίθριος
Αίθριος
 Ανεμος από Ν
Ανεμος: Ν 17 km/h
Θερμοκρασία: 33°C
Σημείο Δρόσου: 13°C
Υγρασία: 30%
Βαρόμετρο: 1014 hPa
Περίληψη: Αίθριος
Visibility: greater than 10 km
2017/07/22 14:20 LGTS 221420Z 19009KT CAVOK 33/13 Q1014 NOSIG
LGKV - Kavala/Chrisoupo, Greece
Distance from station: ΑΒΑ 80km
Ενημερώθηκε: 22/07/2017 17:20
Αίθριος
Αίθριος
 Ανεμος από ΔΝΔ
Ανεμος: ΔΝΔ 13 km/h
Θερμοκρασία: 30°C
Heat Index: 31°C
Σημείο Δρόσου: 19°C
Υγρασία: 52%
Βαρόμετρο: 1014 hPa
Περίληψη: Αίθριος
Visibility: greater than 10 km
2017/07/22 14:20 LGKV 221420Z 24007KT CAVOK 30/19 Q1014
LGLM - Limnos Island Ar, Greece
Distance from station: ΑΝΑ 157km
Ενημερώθηκε: 22/07/2017 17:20
Αίθριος
Αίθριος
 Ανεμος από ΒΒΑ
Ανεμος: ΒΒΑ 15 km/h
Θερμοκρασία: 30°C
Σημείο Δρόσου: 13°C
Υγρασία: 35%
Βαρόμετρο: 1014 hPa
Περίληψη: Αίθριος
Visibility: greater than 10 km
2017/07/22 14:20 LGLM 221420Z 02008KT CAVOK 30/13 Q1014
 
LGKZ - Kozani (civ/Army, Greece
Distance from station: ΔΝΔ 165km
Ενημερώθηκε: 22/07/2017 16:50
Few Clouds
Few Clouds
 Ανεμος από calm
Ανεμος: Απνοια
Θερμοκρασία: 32°C
Σημείο Δρόσου: 14°C
Υγρασία: 33%
Βαρόμετρο: 1018 hPa
Clouds: Few Clouds
Visibility: 10 km
Cloud details: Few Clouds 762 m
2017/07/22 13:50 LGKZ 221350Z 00000KT 9999 FEW025 32/14 Q1018
LGSK - Skiathos Island, Greece
Distance from station: Ν 171km
Ενημερώθηκε: 22/07/2017 16:50
Αίθριος
Αίθριος
 Ανεμος από calm
Ανεμος: Απνοια
Θερμοκρασία: 29°C
Heat Index: 31°C
Σημείο Δρόσου: 20°C
Υγρασία: 58%
Βαρόμετρο: 1015 hPa
Περίληψη: Αίθριος
Visibility: greater than 10 km
2017/07/22 13:50 LGSK 221350Z 00000KT CAVOK 29/20 Q1015
LBPD - Plovdiv, Bulgaria
Distance from station: ΒΒΑ 182km
Ενημερώθηκε: 22/07/2017 17:30
Αίθριος
Αίθριος
 Ανεμος από ΑΒΑ
Ανεμος: ΑΒΑ 9 km/h
Θερμοκρασία: 34°C
Σημείο Δρόσου: 13°C
Υγρασία: 28%
Βαρόμετρο: 1014 hPa
Clouds: Αίθριος
Visibility: 10 km
2017/07/22 14:30 LBPD 221430Z AUTO 06005KT 330V140 9999 NCD 34/13 Q1014 NOSIG
 
LGBL - Nea Anchialos, Greece
Distance from station: ΝΝΔ 184km
Ενημερώθηκε: 22/07/2017 17:20
Αίθριος
Αίθριος
 Ανεμος από Α
Ανεμος: Α 20 km/h
Θερμοκρασία: 31°C
Heat Index: 32°C
Σημείο Δρόσου: 17°C
Υγρασία: 43%
Βαρόμετρο: 1014 hPa
Περίληψη: Αίθριος
Visibility: greater than 10 km
2017/07/22 14:20 LGBL 221420Z 10011KT CAVOK 31/17 Q1014
LGAL - Alexandroupolis, Greece
Distance from station: Α 190km
Ενημερώθηκε: 22/07/2017 17:20
Αίθριος
Αίθριος
 Ανεμος από Δ
Ανεμος: Δ 13 km/h
Θερμοκρασία: 32°C
Heat Index: 34°C
Σημείο Δρόσου: 19°C
Υγρασία: 46%
Βαρόμετρο: 1014 hPa
Περίληψη: Αίθριος
Visibility: greater than 10 km
2017/07/22 14:20 LGAL 221420Z 26007KT CAVOK 32/19 Q1014